sensor_id;sensor_type;location;lat;lon;timestamp;temperature;humidity
43049;DHT22;28673;44.412;11.918;2023-12-22T00:01:29;4.10;99.90
43049;DHT22;28673;44.412;11.918;2023-12-22T00:03:55;4.10;99.90
43049;DHT22;28673;44.412;11.918;2023-12-22T00:06:22;4.10;99.90
43049;DHT22;28673;44.412;11.918;2023-12-22T00:08:47;4.10;99.90
43049;DHT22;28673;44.412;11.918;2023-12-22T00:11:13;4.20;99.90
43049;DHT22;28673;44.412;11.918;2023-12-22T00:13:39;4.20;99.90
43049;DHT22;28673;44.412;11.918;2023-12-22T00:16:05;4.20;99.90
43049;DHT22;28673;44.412;11.918;2023-12-22T00:18:31;4.20;99.90
43049;DHT22;28673;44.412;11.918;2023-12-22T00:20:57;4.20;99.90
43049;DHT22;28673;44.412;11.918;2023-12-22T00:23:23;4.30;99.90
43049;DHT22;28673;44.412;11.918;2023-12-22T00:25:48;4.30;99.90
43049;DHT22;28673;44.412;11.918;2023-12-22T00:28:14;4.30;99.90
43049;DHT22;28673;44.412;11.918;2023-12-22T00:30:40;4.30;99.90
43049;DHT22;28673;44.412;11.918;2023-12-22T00:33:06;4.30;99.90
43049;DHT22;28673;44.412;11.918;2023-12-22T00:35:32;4.40;99.90
43049;DHT22;28673;44.412;11.918;2023-12-22T00:37:58;4.40;99.90
43049;DHT22;28673;44.412;11.918;2023-12-22T00:40:24;4.40;99.90
43049;DHT22;28673;44.412;11.918;2023-12-22T00:42:50;4.50;99.90
43049;DHT22;28673;44.412;11.918;2023-12-22T00:45:16;4.50;99.90
43049;DHT22;28673;44.412;11.918;2023-12-22T00:47:41;4.60;99.90
43049;DHT22;28673;44.412;11.918;2023-12-22T00:50:08;4.80;99.90
43049;DHT22;28673;44.412;11.918;2023-12-22T00:52:33;4.90;99.90
43049;DHT22;28673;44.412;11.918;2023-12-22T00:54:59;5.00;99.90
43049;DHT22;28673;44.412;11.918;2023-12-22T00:57:25;5.10;99.90
43049;DHT22;28673;44.412;11.918;2023-12-22T00:59:51;5.10;99.90
43049;DHT22;28673;44.412;11.918;2023-12-22T01:02:17;5.20;99.90
43049;DHT22;28673;44.412;11.918;2023-12-22T01:04:44;5.30;99.90
43049;DHT22;28673;44.412;11.918;2023-12-22T01:07:10;5.40;99.90
43049;DHT22;28673;44.412;11.918;2023-12-22T01:09:37;5.50;99.90
43049;DHT22;28673;44.412;11.918;2023-12-22T01:12:04;5.50;99.90
43049;DHT22;28673;44.412;11.918;2023-12-22T01:14:30;5.60;99.90
43049;DHT22;28673;44.412;11.918;2023-12-22T01:16:56;5.70;99.90
43049;DHT22;28673;44.412;11.918;2023-12-22T01:19:22;5.70;99.90
43049;DHT22;28673;44.412;11.918;2023-12-22T01:21:48;5.80;99.90
43049;DHT22;28673;44.412;11.918;2023-12-22T01:24:15;5.80;99.90
43049;DHT22;28673;44.412;11.918;2023-12-22T01:26:41;5.80;99.90
43049;DHT22;28673;44.412;11.918;2023-12-22T01:29:08;5.90;99.90
43049;DHT22;28673;44.412;11.918;2023-12-22T01:31:34;5.90;99.90
43049;DHT22;28673;44.412;11.918;2023-12-22T01:34:00;5.90;99.90
43049;DHT22;28673;44.412;11.918;2023-12-22T01:36:26;5.90;99.90
43049;DHT22;28673;44.412;11.918;2023-12-22T01:38:52;5.80;99.90
43049;DHT22;28673;44.412;11.918;2023-12-22T01:41:17;5.80;99.90
43049;DHT22;28673;44.412;11.918;2023-12-22T01:43:43;5.80;99.90
43049;DHT22;28673;44.412;11.918;2023-12-22T01:46:10;5.80;99.90
43049;DHT22;28673;44.412;11.918;2023-12-22T01:48:37;5.70;99.90
43049;DHT22;28673;44.412;11.918;2023-12-22T01:51:04;5.70;99.90
43049;DHT22;28673;44.412;11.918;2023-12-22T01:53:30;5.60;99.90
43049;DHT22;28673;44.412;11.918;2023-12-22T01:55:59;5.60;99.90
43049;DHT22;28673;44.412;11.918;2023-12-22T01:58:26;5.50;99.90
43049;DHT22;28673;44.412;11.918;2023-12-22T02:00:53;5.50;99.90
43049;DHT22;28673;44.412;11.918;2023-12-22T02:03:19;5.40;99.90
43049;DHT22;28673;44.412;11.918;2023-12-22T02:05:45;5.30;99.90
43049;DHT22;28673;44.412;11.918;2023-12-22T02:08:11;5.30;99.90
43049;DHT22;28673;44.412;11.918;2023-12-22T02:10:38;5.20;99.90
43049;DHT22;28673;44.412;11.918;2023-12-22T02:13:05;5.10;99.90
43049;DHT22;28673;44.412;11.918;2023-12-22T02:15:32;5.00;99.90
43049;DHT22;28673;44.412;11.918;2023-12-22T02:18:05;4.90;99.90
43049;DHT22;28673;44.412;11.918;2023-12-22T02:20:33;4.90;99.90
43049;DHT22;28673;44.412;11.918;2023-12-22T02:22:59;4.80;99.90
43049;DHT22;28673;44.412;11.918;2023-12-22T02:25:24;4.70;99.90
43049;DHT22;28673;44.412;11.918;2023-12-22T02:27:53;4.70;99.90
43049;DHT22;28673;44.412;11.918;2023-12-22T02:30:49;4.60;99.90
43049;DHT22;28673;44.412;11.918;2023-12-22T02:33:18;4.60;99.90
43049;DHT22;28673;44.412;11.918;2023-12-22T02:35:47;4.60;99.90
43049;DHT22;28673;44.412;11.918;2023-12-22T02:38:15;4.50;99.90
43049;DHT22;28673;44.412;11.918;2023-12-22T02:40:41;4.50;99.90
43049;DHT22;28673;44.412;11.918;2023-12-22T02:43:08;4.40;99.90
43049;DHT22;28673;44.412;11.918;2023-12-22T02:45:35;4.40;99.90
43049;DHT22;28673;44.412;11.918;2023-12-22T02:48:00;4.30;99.90
43049;DHT22;28673;44.412;11.918;2023-12-22T02:50:26;4.30;99.90
43049;DHT22;28673;44.412;11.918;2023-12-22T02:52:52;4.20;99.90
43049;DHT22;28673;44.412;11.918;2023-12-22T02:55:18;4.20;99.90
43049;DHT22;28673;44.412;11.918;2023-12-22T02:57:43;4.10;99.90
43049;DHT22;28673;44.412;11.918;2023-12-22T03:00:10;4.10;99.90
43049;DHT22;28673;44.412;11.918;2023-12-22T03:02:35;4.10;99.90
43049;DHT22;28673;44.412;11.918;2023-12-22T03:05:01;4.00;99.90
43049;DHT22;28673;44.412;11.918;2023-12-22T03:07:27;4.00;99.90
43049;DHT22;28673;44.412;11.918;2023-12-22T03:09:53;4.00;99.90
43049;DHT22;28673;44.412;11.918;2023-12-22T03:12:19;4.00;99.90
43049;DHT22;28673;44.412;11.918;2023-12-22T03:14:44;4.00;99.90
43049;DHT22;28673;44.412;11.918;2023-12-22T03:17:10;4.00;99.90
43049;DHT22;28673;44.412;11.918;2023-12-22T03:19:36;4.00;99.90
43049;DHT22;28673;44.412;11.918;2023-12-22T03:22:02;3.90;99.90
43049;DHT22;28673;44.412;11.918;2023-12-22T03:24:28;3.90;99.90
43049;DHT22;28673;44.412;11.918;2023-12-22T03:26:54;3.90;99.90
43049;DHT22;28673;44.412;11.918;2023-12-22T03:29:20;3.90;99.90
43049;DHT22;28673;44.412;11.918;2023-12-22T03:31:46;3.90;99.90
43049;DHT22;28673;44.412;11.918;2023-12-22T03:34:12;3.90;99.90
43049;DHT22;28673;44.412;11.918;2023-12-22T03:36:38;3.90;99.90
43049;DHT22;28673;44.412;11.918;2023-12-22T03:39:05;3.90;99.90
43049;DHT22;28673;44.412;11.918;2023-12-22T03:41:31;3.80;99.90
43049;DHT22;28673;44.412;11.918;2023-12-22T03:43:57;3.90;99.90
43049;DHT22;28673;44.412;11.918;2023-12-22T03:46:27;3.90;99.90
43049;DHT22;28673;44.412;11.918;2023-12-22T03:48:53;4.00;99.90
43049;DHT22;28673;44.412;11.918;2023-12-22T03:51:19;4.00;99.90
43049;DHT22;28673;44.412;11.918;2023-12-22T03:53:45;4.00;99.90
43049;DHT22;28673;44.412;11.918;2023-12-22T03:56:10;4.00;99.90
43049;DHT22;28673;44.412;11.918;2023-12-22T03:58:37;4.00;99.90
43049;DHT22;28673;44.412;11.918;2023-12-22T04:01:03;4.00;99.90
43049;DHT22;28673;44.412;11.918;2023-12-22T04:03:30;4.00;99.90
43049;DHT22;28673;44.412;11.918;2023-12-22T04:05:56;3.90;99.90
43049;DHT22;28673;44.412;11.918;2023-12-22T04:08:21;3.90;99.90
43049;DHT22;28673;44.412;11.918;2023-12-22T04:10:47;3.90;99.90
43049;DHT22;28673;44.412;11.918;2023-12-22T04:13:13;3.90;99.90
43049;DHT22;28673;44.412;11.918;2023-12-22T04:15:39;3.90;99.90
43049;DHT22;28673;44.412;11.918;2023-12-22T04:18:05;3.80;99.90
43049;DHT22;28673;44.412;11.918;2023-12-22T04:20:31;3.80;99.90
43049;DHT22;28673;44.412;11.918;2023-12-22T04:22:57;3.80;99.90
43049;DHT22;28673;44.412;11.918;2023-12-22T04:25:23;3.80;99.90
43049;DHT22;28673;44.412;11.918;2023-12-22T04:27:51;3.70;99.90
43049;DHT22;28673;44.412;11.918;2023-12-22T04:30:17;3.70;99.90
43049;DHT22;28673;44.412;11.918;2023-12-22T04:32:43;3.60;99.90
43049;DHT22;28673;44.412;11.918;2023-12-22T04:35:09;3.60;99.90
43049;DHT22;28673;44.412;11.918;2023-12-22T04:37:35;3.60;99.90
43049;DHT22;28673;44.412;11.918;2023-12-22T04:40:00;3.50;99.90
43049;DHT22;28673;44.412;11.918;2023-12-22T04:42:26;3.50;99.90
43049;DHT22;28673;44.412;11.918;2023-12-22T04:44:52;3.50;99.90
43049;DHT22;28673;44.412;11.918;2023-12-22T04:47:18;3.50;99.90
43049;DHT22;28673;44.412;11.918;2023-12-22T04:49:44;3.40;99.90
43049;DHT22;28673;44.412;11.918;2023-12-22T04:52:11;3.40;99.90
43049;DHT22;28673;44.412;11.918;2023-12-22T04:54:37;3.40;99.90
43049;DHT22;28673;44.412;11.918;2023-12-22T04:57:04;3.40;99.90
43049;DHT22;28673;44.412;11.918;2023-12-22T04:59:30;3.40;99.90
43049;DHT22;28673;44.412;11.918;2023-12-22T05:01:56;3.40;99.90
43049;DHT22;28673;44.412;11.918;2023-12-22T05:04:22;3.40;99.90
43049;DHT22;28673;44.412;11.918;2023-12-22T05:06:48;3.40;99.90
43049;DHT22;28673;44.412;11.918;2023-12-22T05:09:14;3.40;99.90
43049;DHT22;28673;44.412;11.918;2023-12-22T05:11:43;3.40;99.90
43049;DHT22;28673;44.412;11.918;2023-12-22T05:14:09;3.30;99.90
43049;DHT22;28673;44.412;11.918;2023-12-22T05:16:35;3.30;99.90
43049;DHT22;28673;44.412;11.918;2023-12-22T05:19:01;3.30;99.90
43049;DHT22;28673;44.412;11.918;2023-12-22T05:21:27;3.30;99.90
43049;DHT22;28673;44.412;11.918;2023-12-22T05:23:55;3.30;99.90
43049;DHT22;28673;44.412;11.918;2023-12-22T05:26:21;3.20;99.90
43049;DHT22;28673;44.412;11.918;2023-12-22T05:28:51;3.20;99.90
43049;DHT22;28673;44.412;11.918;2023-12-22T05:31:17;3.20;99.90
43049;DHT22;28673;44.412;11.918;2023-12-22T05:33:43;3.10;99.90
43049;DHT22;28673;44.412;11.918;2023-12-22T05:36:09;3.10;99.90
43049;DHT22;28673;44.412;11.918;2023-12-22T05:38:38;3.10;99.90
43049;DHT22;28673;44.412;11.918;2023-12-22T05:41:04;3.10;99.90
43049;DHT22;28673;44.412;11.918;2023-12-22T05:43:32;3.00;99.90
43049;DHT22;28673;44.412;11.918;2023-12-22T05:45:59;3.00;99.90
43049;DHT22;28673;44.412;11.918;2023-12-22T05:48:26;3.00;99.90
43049;DHT22;28673;44.412;11.918;2023-12-22T05:50:53;3.00;99.90
43049;DHT22;28673;44.412;11.918;2023-12-22T05:53:21;3.00;99.90
43049;DHT22;28673;44.412;11.918;2023-12-22T05:55:50;3.00;99.90
43049;DHT22;28673;44.412;11.918;2023-12-22T05:58:15;2.90;99.90
43049;DHT22;28673;44.412;11.918;2023-12-22T06:00:41;2.90;99.90
43049;DHT22;28673;44.412;11.918;2023-12-22T06:03:07;2.90;99.90
43049;DHT22;28673;44.412;11.918;2023-12-22T06:05:33;2.90;99.90
43049;DHT22;28673;44.412;11.918;2023-12-22T06:07:58;2.90;99.90
43049;DHT22;28673;44.412;11.918;2023-12-22T06:10:24;2.90;99.90
43049;DHT22;28673;44.412;11.918;2023-12-22T06:12:50;2.90;99.90
43049;DHT22;28673;44.412;11.918;2023-12-22T06:15:16;2.90;99.90
43049;DHT22;28673;44.412;11.918;2023-12-22T06:17:41;2.90;99.90
43049;DHT22;28673;44.412;11.918;2023-12-22T06:20:08;2.90;99.90
43049;DHT22;28673;44.412;11.918;2023-12-22T06:22:33;2.90;99.90
43049;DHT22;28673;44.412;11.918;2023-12-22T06:24:59;2.90;99.90
43049;DHT22;28673;44.412;11.918;2023-12-22T06:27:25;2.80;99.90
43049;DHT22;28673;44.412;11.918;2023-12-22T06:29:51;2.80;99.90
43049;DHT22;28673;44.412;11.918;2023-12-22T06:32:17;2.90;99.90
43049;DHT22;28673;44.412;11.918;2023-12-22T06:34:43;2.80;99.90
43049;DHT22;28673;44.412;11.918;2023-12-22T06:37:08;2.90;99.90
43049;DHT22;28673;44.412;11.918;2023-12-22T06:39:36;2.90;99.90
43049;DHT22;28673;44.412;11.918;2023-12-22T06:42:02;2.80;99.90
43049;DHT22;28673;44.412;11.918;2023-12-22T06:44:29;2.80;99.90
43049;DHT22;28673;44.412;11.918;2023-12-22T06:46:57;2.80;99.90
43049;DHT22;28673;44.412;11.918;2023-12-22T06:49:22;2.80;99.90
43049;DHT22;28673;44.412;11.918;2023-12-22T06:51:48;2.80;99.90
43049;DHT22;28673;44.412;11.918;2023-12-22T06:54:14;2.70;99.90
43049;DHT22;28673;44.412;11.918;2023-12-22T06:56:40;2.70;99.90
43049;DHT22;28673;44.412;11.918;2023-12-22T06:59:06;2.70;99.90
43049;DHT22;28673;44.412;11.918;2023-12-22T07:01:33;2.70;99.90
43049;DHT22;28673;44.412;11.918;2023-12-22T07:04:00;2.70;99.90
43049;DHT22;28673;44.412;11.918;2023-12-22T07:06:27;2.70;99.90
43049;DHT22;28673;44.412;11.918;2023-12-22T07:11:23;2.70;99.90
43049;DHT22;28673;44.412;11.918;2023-12-22T07:13:49;2.80;99.90
43049;DHT22;28673;44.412;11.918;2023-12-22T07:16:15;3.00;99.90
43049;DHT22;28673;44.412;11.918;2023-12-22T07:18:41;3.20;99.90
43049;DHT22;28673;44.412;11.918;2023-12-22T07:21:06;3.40;99.90
43049;DHT22;28673;44.412;11.918;2023-12-22T07:23:32;3.50;99.90
43049;DHT22;28673;44.412;11.918;2023-12-22T07:25:58;3.70;99.90
43049;DHT22;28673;44.412;11.918;2023-12-22T07:28:24;3.80;99.90
43049;DHT22;28673;44.412;11.918;2023-12-22T07:30:50;3.90;99.90
43049;DHT22;28673;44.412;11.918;2023-12-22T07:33:16;4.10;99.90
43049;DHT22;28673;44.412;11.918;2023-12-22T07:35:42;4.30;99.90
43049;DHT22;28673;44.412;11.918;2023-12-22T07:38:07;4.40;99.90
43049;DHT22;28673;44.412;11.918;2023-12-22T07:40:34;4.50;99.90
43049;DHT22;28673;44.412;11.918;2023-12-22T07:43:00;4.60;99.90
43049;DHT22;28673;44.412;11.918;2023-12-22T07:45:26;4.70;99.90
43049;DHT22;28673;44.412;11.918;2023-12-22T07:47:54;4.80;99.90
43049;DHT22;28673;44.412;11.918;2023-12-22T07:50:19;4.90;99.90
43049;DHT22;28673;44.412;11.918;2023-12-22T07:52:47;4.90;99.90
43049;DHT22;28673;44.412;11.918;2023-12-22T07:55:13;5.00;99.90
43049;DHT22;28673;44.412;11.918;2023-12-22T07:57:38;5.10;99.90
43049;DHT22;28673;44.412;11.918;2023-12-22T08:00:05;5.20;99.90
43049;DHT22;28673;44.412;11.918;2023-12-22T08:02:37;5.20;99.90
43049;DHT22;28673;44.412;11.918;2023-12-22T08:05:04;5.30;99.90
43049;DHT22;28673;44.412;11.918;2023-12-22T08:07:30;5.40;99.90
43049;DHT22;28673;44.412;11.918;2023-12-22T08:09:56;5.50;99.90
43049;DHT22;28673;44.412;11.918;2023-12-22T08:12:22;5.60;99.90
43049;DHT22;28673;44.412;11.918;2023-12-22T08:14:48;5.70;99.90
43049;DHT22;28673;44.412;11.918;2023-12-22T08:17:14;5.70;99.90
43049;DHT22;28673;44.412;11.918;2023-12-22T08:19:40;5.80;99.90
43049;DHT22;28673;44.412;11.918;2023-12-22T08:22:12;5.90;99.90
43049;DHT22;28673;44.412;11.918;2023-12-22T08:24:41;6.00;99.90
43049;DHT22;28673;44.412;11.918;2023-12-22T08:27:07;6.10;99.90
43049;DHT22;28673;44.412;11.918;2023-12-22T08:29:33;6.30;99.90
43049;DHT22;28673;44.412;11.918;2023-12-22T08:32:00;6.40;99.90
43049;DHT22;28673;44.412;11.918;2023-12-22T08:34:26;6.50;99.90
43049;DHT22;28673;44.412;11.918;2023-12-22T08:36:52;6.60;99.90
43049;DHT22;28673;44.412;11.918;2023-12-22T08:39:18;6.70;99.90
43049;DHT22;28673;44.412;11.918;2023-12-22T08:41:45;6.80;99.90
43049;DHT22;28673;44.412;11.918;2023-12-22T08:44:11;7.00;99.90
43049;DHT22;28673;44.412;11.918;2023-12-22T08:46:40;7.10;99.90
43049;DHT22;28673;44.412;11.918;2023-12-22T08:49:06;7.30;99.90
43049;DHT22;28673;44.412;11.918;2023-12-22T08:51:33;7.50;99.90
43049;DHT22;28673;44.412;11.918;2023-12-22T08:53:59;7.70;99.90
43049;DHT22;28673;44.412;11.918;2023-12-22T08:56:26;7.90;99.90
43049;DHT22;28673;44.412;11.918;2023-12-22T08:58:53;8.20;99.90
43049;DHT22;28673;44.412;11.918;2023-12-22T09:01:21;8.50;99.90
43049;DHT22;28673;44.412;11.918;2023-12-22T09:03:47;8.90;99.90
43049;DHT22;28673;44.412;11.918;2023-12-22T09:06:17;9.20;99.90
43049;DHT22;28673;44.412;11.918;2023-12-22T09:08:44;9.50;99.90
43049;DHT22;28673;44.412;11.918;2023-12-22T09:11:11;9.60;99.90
43049;DHT22;28673;44.412;11.918;2023-12-22T09:13:38;9.90;99.90
43049;DHT22;28673;44.412;11.918;2023-12-22T09:16:05;10.20;99.90
43049;DHT22;28673;44.412;11.918;2023-12-22T09:18:31;10.50;99.90
43049;DHT22;28673;44.412;11.918;2023-12-22T09:20:57;10.70;99.90
43049;DHT22;28673;44.412;11.918;2023-12-22T09:23:24;11.00;99.90
43049;DHT22;28673;44.412;11.918;2023-12-22T09:25:49;11.20;99.90
43049;DHT22;28673;44.412;11.918;2023-12-22T09:28:15;11.50;99.90
43049;DHT22;28673;44.412;11.918;2023-12-22T09:30:41;11.80;99.50
43049;DHT22;28673;44.412;11.918;2023-12-22T09:33:09;12.00;99.50
43049;DHT22;28673;44.412;11.918;2023-12-22T09:35:35;12.30;98.30
43049;DHT22;28673;44.412;11.918;2023-12-22T09:38:01;12.40;98.80
43049;DHT22;28673;44.412;11.918;2023-12-22T09:40:27;12.60;97.90
43049;DHT22;28673;44.412;11.918;2023-12-22T09:42:57;12.80;97.70
43049;DHT22;28673;44.412;11.918;2023-12-22T09:45:24;13.10;95.10
43049;DHT22;28673;44.412;11.918;2023-12-22T09:47:51;13.30;95.80
43049;DHT22;28673;44.412;11.918;2023-12-22T09:50:18;13.60;95.90
43049;DHT22;28673;44.412;11.918;2023-12-22T09:52:45;13.80;95.20
43049;DHT22;28673;44.412;11.918;2023-12-22T09:55:13;13.90;93.30
43049;DHT22;28673;44.412;11.918;2023-12-22T09:57:39;14.20;94.10
43049;DHT22;28673;44.412;11.918;2023-12-22T10:00:09;14.30;93.30
43049;DHT22;28673;44.412;11.918;2023-12-22T10:02:39;14.60;92.60
43049;DHT22;28673;44.412;11.918;2023-12-22T10:05:06;14.80;91.20
43049;DHT22;28673;44.412;11.918;2023-12-22T10:07:31;14.90;91.70
43049;DHT22;28673;44.412;11.918;2023-12-22T10:09:59;15.20;91.10
43049;DHT22;28673;44.412;11.918;2023-12-22T10:12:27;15.30;91.90
43049;DHT22;28673;44.412;11.918;2023-12-22T10:14:55;15.40;91.70
43049;DHT22;28673;44.412;11.918;2023-12-22T10:17:22;15.60;90.90
43049;DHT22;28673;44.412;11.918;2023-12-22T10:19:48;15.70;89.70
43049;DHT22;28673;44.412;11.918;2023-12-22T10:22:13;15.80;90.80
43049;DHT22;28673;44.412;11.918;2023-12-22T10:24:44;15.90;90.10
43049;DHT22;28673;44.412;11.918;2023-12-22T10:27:13;16.10;90.00
43049;DHT22;28673;44.412;11.918;2023-12-22T10:29:39;16.30;85.70
43049;DHT22;28673;44.412;11.918;2023-12-22T10:32:06;16.40;89.60
43049;DHT22;28673;44.412;11.918;2023-12-22T10:34:32;16.50;88.20
43049;DHT22;28673;44.412;11.918;2023-12-22T10:37:01;16.70;88.30
43049;DHT22;28673;44.412;11.918;2023-12-22T10:39:30;16.80;84.40
43049;DHT22;28673;44.412;11.918;2023-12-22T10:41:58;17.00;85.20
43049;DHT22;28673;44.412;11.918;2023-12-22T10:44:28;17.10;84.50
43049;DHT22;28673;44.412;11.918;2023-12-22T10:46:55;17.20;84.10
43049;DHT22;28673;44.412;11.918;2023-12-22T10:49:22;17.30;84.90
43049;DHT22;28673;44.412;11.918;2023-12-22T10:51:49;17.40;82.20
43049;DHT22;28673;44.412;11.918;2023-12-22T10:54:16;17.60;78.20
43049;DHT22;28673;44.412;11.918;2023-12-22T10:56:42;17.60;82.50
43049;DHT22;28673;44.412;11.918;2023-12-22T10:59:08;17.70;81.30
43049;DHT22;28673;44.412;11.918;2023-12-22T11:01:36;17.80;83.70
43049;DHT22;28673;44.412;11.918;2023-12-22T11:04:11;17.90;83.10
43049;DHT22;28673;44.412;11.918;2023-12-22T11:06:41;18.10;80.30
43049;DHT22;28673;44.412;11.918;2023-12-22T11:09:09;18.20;82.40
43049;DHT22;28673;44.412;11.918;2023-12-22T11:11:37;18.30;80.70
43049;DHT22;28673;44.412;11.918;2023-12-22T11:14:05;18.50;76.10
43049;DHT22;28673;44.412;11.918;2023-12-22T11:16:33;18.60;77.10
43049;DHT22;28673;44.412;11.918;2023-12-22T11:18:59;18.70;80.10
43049;DHT22;28673;44.412;11.918;2023-12-22T11:21:26;18.90;78.90
43049;DHT22;28673;44.412;11.918;2023-12-22T11:23:53;19.00;79.70
43049;DHT22;28673;44.412;11.918;2023-12-22T11:26:20;19.00;77.60
43049;DHT22;28673;44.412;11.918;2023-12-22T11:28:48;19.10;78.10
43049;DHT22;28673;44.412;11.918;2023-12-22T11:31:14;19.20;76.20
43049;DHT22;28673;44.412;11.918;2023-12-22T11:33:50;19.30;78.70
43049;DHT22;28673;44.412;11.918;2023-12-22T11:36:17;19.30;75.60
43049;DHT22;28673;44.412;11.918;2023-12-22T11:38:45;19.30;77.20
43049;DHT22;28673;44.412;11.918;2023-12-22T11:41:18;19.40;74.20
43049;DHT22;28673;44.412;11.918;2023-12-22T11:43:45;19.40;72.20
43049;DHT22;28673;44.412;11.918;2023-12-22T11:46:12;19.40;76.70
43049;DHT22;28673;44.412;11.918;2023-12-22T11:48:38;19.40;73.10
43049;DHT22;28673;44.412;11.918;2023-12-22T11:51:13;19.50;76.10
43049;DHT22;28673;44.412;11.918;2023-12-22T11:53:40;19.50;75.30
43049;DHT22;28673;44.412;11.918;2023-12-22T11:56:07;19.50;72.30
43049;DHT22;28673;44.412;11.918;2023-12-22T11:58:42;19.60;73.90
43049;DHT22;28673;44.412;11.918;2023-12-22T12:01:12;19.60;74.20
43049;DHT22;28673;44.412;11.918;2023-12-22T12:08:56;19.70;71.20
43049;DHT22;28673;44.412;11.918;2023-12-22T12:11:22;19.70;73.00
43049;DHT22;28673;44.412;11.918;2023-12-22T12:13:49;19.70;71.70
43049;DHT22;28673;44.412;11.918;2023-12-22T12:16:19;19.70;71.20
43049;DHT22;28673;44.412;11.918;2023-12-22T12:18:50;19.80;69.10
43049;DHT22;28673;44.412;11.918;2023-12-22T12:21:18;19.70;68.30
43049;DHT22;28673;44.412;11.918;2023-12-22T12:23:44;19.70;69.30
43049;DHT22;28673;44.412;11.918;2023-12-22T12:26:11;19.80;71.10
43049;DHT22;28673;44.412;11.918;2023-12-22T12:28:38;19.80;70.40
43049;DHT22;28673;44.412;11.918;2023-12-22T12:31:06;19.80;70.20
43049;DHT22;28673;44.412;11.918;2023-12-22T12:33:32;19.80;70.90
43049;DHT22;28673;44.412;11.918;2023-12-22T12:35:59;19.80;71.30
43049;DHT22;28673;44.412;11.918;2023-12-22T12:38:54;19.90;69.80
43049;DHT22;28673;44.412;11.918;2023-12-22T12:41:31;19.90;67.20
43049;DHT22;28673;44.412;11.918;2023-12-22T12:44:03;19.90;66.30
43049;DHT22;28673;44.412;11.918;2023-12-22T12:46:38;19.90;68.30
43049;DHT22;28673;44.412;11.918;2023-12-22T12:49:08;19.90;66.70
43049;DHT22;28673;44.412;11.918;2023-12-22T12:51:38;19.90;69.10
43049;DHT22;28673;44.412;11.918;2023-12-22T12:54:05;20.00;68.50
43049;DHT22;28673;44.412;11.918;2023-12-22T12:56:42;19.90;70.30
43049;DHT22;28673;44.412;11.918;2023-12-22T12:59:12;20.00;68.60
43049;DHT22;28673;44.412;11.918;2023-12-22T13:01:42;20.00;69.30
43049;DHT22;28673;44.412;11.918;2023-12-22T13:04:09;20.00;67.70
43049;DHT22;28673;44.412;11.918;2023-12-22T13:06:35;20.10;70.70
43049;DHT22;28673;44.412;11.918;2023-12-22T13:09:01;20.00;66.50
43049;DHT22;28673;44.412;11.918;2023-12-22T13:11:29;20.10;70.40
43049;DHT22;28673;44.412;11.918;2023-12-22T13:13:56;20.10;69.70
43049;DHT22;28673;44.412;11.918;2023-12-22T13:16:24;20.10;70.30
43049;DHT22;28673;44.412;11.918;2023-12-22T13:18:59;20.10;70.60
43049;DHT22;28673;44.412;11.918;2023-12-22T13:21:29;20.10;68.60
43049;DHT22;28673;44.412;11.918;2023-12-22T13:24:14;20.10;69.60
43049;DHT22;28673;44.412;11.918;2023-12-22T13:26:44;20.00;66.90
43049;DHT22;28673;44.412;11.918;2023-12-22T13:29:11;20.00;69.50
43049;DHT22;28673;44.412;11.918;2023-12-22T13:31:40;20.00;69.10
43049;DHT22;28673;44.412;11.918;2023-12-22T13:34:11;19.90;68.60
43049;DHT22;28673;44.412;11.918;2023-12-22T13:36:38;19.90;67.00
43049;DHT22;28673;44.412;11.918;2023-12-22T13:39:08;19.80;68.60
43049;DHT22;28673;44.412;11.918;2023-12-22T13:41:35;19.80;67.10
43049;DHT22;28673;44.412;11.918;2023-12-22T13:44:04;19.80;68.70
43049;DHT22;28673;44.412;11.918;2023-12-22T13:46:31;19.80;69.00
43049;DHT22;28673;44.412;11.918;2023-12-22T13:48:58;19.80;69.10
43049;DHT22;28673;44.412;11.918;2023-12-22T13:51:24;19.80;68.50
43049;DHT22;28673;44.412;11.918;2023-12-22T13:53:50;19.70;67.50
43049;DHT22;28673;44.412;11.918;2023-12-22T13:56:16;19.70;68.60
43049;DHT22;28673;44.412;11.918;2023-12-22T13:58:48;19.70;67.80
43049;DHT22;28673;44.412;11.918;2023-12-22T14:01:15;19.70;67.00
43049;DHT22;28673;44.412;11.918;2023-12-22T14:03:42;19.60;68.80
43049;DHT22;28673;44.412;11.918;2023-12-22T14:06:07;19.60;68.30
43049;DHT22;28673;44.412;11.918;2023-12-22T14:08:35;19.50;67.80
43049;DHT22;28673;44.412;11.918;2023-12-22T14:11:01;19.50;69.00
43049;DHT22;28673;44.412;11.918;2023-12-22T14:13:27;19.50;68.70
43049;DHT22;28673;44.412;11.918;2023-12-22T14:15:53;19.40;68.70
43049;DHT22;28673;44.412;11.918;2023-12-22T14:18:19;19.40;68.60
43049;DHT22;28673;44.412;11.918;2023-12-22T14:20:44;19.40;67.40
43049;DHT22;28673;44.412;11.918;2023-12-22T14:23:11;19.30;68.10
43049;DHT22;28673;44.412;11.918;2023-12-22T14:25:42;19.30;67.90
43049;DHT22;28673;44.412;11.918;2023-12-22T14:28:08;19.20;65.70
43049;DHT22;28673;44.412;11.918;2023-12-22T14:30:34;19.10;68.10
43049;DHT22;28673;44.412;11.918;2023-12-22T14:33:00;19.10;68.30
43049;DHT22;28673;44.412;11.918;2023-12-22T14:35:25;19.10;68.50
43049;DHT22;28673;44.412;11.918;2023-12-22T14:37:51;19.00;66.90
43049;DHT22;28673;44.412;11.918;2023-12-22T14:40:17;18.90;68.70
43049;DHT22;28673;44.412;11.918;2023-12-22T14:42:43;18.90;66.80
43049;DHT22;28673;44.412;11.918;2023-12-22T14:45:09;18.80;68.40
43049;DHT22;28673;44.412;11.918;2023-12-22T14:47:35;18.70;68.10
43049;DHT22;28673;44.412;11.918;2023-12-22T14:50:01;18.60;66.80
43049;DHT22;28673;44.412;11.918;2023-12-22T14:52:32;18.60;69.00
43049;DHT22;28673;44.412;11.918;2023-12-22T14:55:01;18.50;69.10
43049;DHT22;28673;44.412;11.918;2023-12-22T14:57:29;18.40;69.30
43049;DHT22;28673;44.412;11.918;2023-12-22T14:59:55;18.30;69.60
43049;DHT22;28673;44.412;11.918;2023-12-22T15:02:21;18.20;69.90
43049;DHT22;28673;44.412;11.918;2023-12-22T15:04:47;18.10;70.10
43049;DHT22;28673;44.412;11.918;2023-12-22T15:07:18;18.00;70.40
43049;DHT22;28673;44.412;11.918;2023-12-22T15:09:45;17.90;70.00
43049;DHT22;28673;44.412;11.918;2023-12-22T15:12:16;17.80;70.40
43049;DHT22;28673;44.412;11.918;2023-12-22T15:14:46;17.70;70.70
43049;DHT22;28673;44.412;11.918;2023-12-22T15:17:13;17.60;70.40
43049;DHT22;28673;44.412;11.918;2023-12-22T15:19:42;17.50;71.50
43049;DHT22;28673;44.412;11.918;2023-12-22T15:22:12;17.50;71.20
43049;DHT22;28673;44.412;11.918;2023-12-22T15:24:40;17.40;71.90
43049;DHT22;28673;44.412;11.918;2023-12-22T15:27:11;17.30;72.10
43049;DHT22;28673;44.412;11.918;2023-12-22T15:29:37;17.10;72.30
43049;DHT22;28673;44.412;11.918;2023-12-22T15:32:03;17.00;72.70